Time;durP1;ratioP1;P1;durP2;ratioP2;P2;SDS_P1;SDS_P2;PMS_P1;PMS_P2;Temp;Humidity;BMP_temperature;BMP_pressure;BME280_temperature;BME280_humidity;BME280_pressure;Samples;Min_cycle;Max_cycle;Signal;HPM_P1;HPM_P2
2021/12/17 00:07:02;;;;;;;;;;;;;;;;;;5033836;28;1568;-80
2021/12/17 00:09:30;;;;;;;;;;;;;;;;;;5022919;28;1640;-80
2021/12/17 00:11:55;;;;;;;;;;;;;;;;;;5014230;28;1903;-80
2021/12/17 00:14:28;;;;;;;;;;;;;;;;;;5027662;28;1848;-80
2021/12/17 00:16:54;;;;;;;;;;;;;;;;;;5023646;28;1626;-79
2021/12/17 00:48:53;;;;;;;;;;;;;;;;;;5027020;28;1596;-80
2021/12/17 00:54:08;;;;;;;;;;;;;;;;;;5046220;28;1596;-80
2021/12/17 00:56:33;;;;;;;;;;;;;;;;;;5021723;28;1631;-80
2021/12/17 00:58:58;;;;;;;;;;;;;;;;;;5026050;28;1713;-80
2021/12/17 01:01:24;;;;;;;;;;;;;;;;;;5013348;28;1623;-80
2021/12/17 01:03:49;;;;;;;;;;;;;;;;;;5029281;28;1868;-80
2021/12/17 01:06:17;;;;;;;;;;;;;;;;;;5031788;28;1588;-80
2021/12/17 01:08:43;;;;;;;;;;;;;;;;;;5045235;28;1554;-80
2021/12/17 01:11:08;;;;;;;;;;;;;;;;;;5039473;28;1708;-80
2021/12/17 01:13:33;;;;;;;;;;;;;;;;;;5020722;28;1910;-80
2021/12/17 01:15:59;;;;;;;;;;;;;;;;;;5014141;28;1780;-80
2021/12/17 01:18:36;;;;;;;;;;;;;;;;;;5026314;28;1671;-80
2021/12/17 01:21:24;;;;;;;;;;;;;;;;;;5027843;28;1801;-80
2021/12/17 01:42:18;;;;;;;;;;;;;;;;;;5024225;28;1461;-80
2021/12/17 01:44:45;;;;;;;;;;;;;;;;;;5025477;28;1748;-80
2021/12/17 01:47:13;;;;;;;;;;;;;;;;;;5033418;28;807;-80
2021/12/17 02:00:05;;;;;;;;;;;;;;;;;;5059770;28;1640;-80
2021/12/17 02:02:33;;;;;;;;;;;;;;;;;;5024275;28;1477;-80
2021/12/17 02:04:58;;;;;;;;;;;;;;;;;;5017086;28;1592;-80
2021/12/17 02:07:24;;;;;;;;;;;;;;;;;;5036271;28;1575;-81
2021/12/17 02:10:24;;;;;;;;;;;;;;;;;;5035117;28;1863;-80
2021/12/17 02:31:37;;;;;;;;;;;;;;;;;;5033790;28;1910;-80
2021/12/17 02:34:08;;;;;;;;;;;;;;;;;;5031965;28;1730;-80
2021/12/17 02:36:35;;;;;;;;;;;;;;;;;;5031854;28;1698;-80
2021/12/17 02:47:12;;;;;;;;;;;;;;;;;;5029416;28;1660;-81
2021/12/17 02:49:38;;;;;;;;;;;;;;;;;;5032993;28;1552;-80
2021/12/17 02:52:04;;;;;;;;;;;;;;;;;;5030949;28;1910;-80
2021/12/17 02:54:29;;;;;;;;;;;;;;;;;;5030472;28;1639;-81
2021/12/17 02:56:55;;;;;;;;;;;;;;;;;;5033144;28;1713;-80
2021/12/17 02:59:20;;;;;;;;;;;;;;;;;;5031889;28;1670;-80
2021/12/17 03:01:45;;;;;;;;;;;;;;;;;;5027839;28;1793;-78
2021/12/17 03:04:11;;;;;;;;;;;;;;;;;;5033131;28;1792;-80
2021/12/17 03:06:36;;;;;;;;;;;;;;;;;;5026396;28;1982;-80
2021/12/17 03:09:04;;;;;;;;;;;;;;;;;;5033732;28;1576;-80
2021/12/17 03:11:29;;;;;;;;;;;;;;;;;;5026531;28;1906;-80
2021/12/17 03:13:54;;;;;;;;;;;;;;;;;;5023550;28;1623;-80
2021/12/17 03:24:34;;;;;;;;;;;;;;;;;;5023572;28;1423;-80
2021/12/17 03:26:59;;;;;;;;;;;;;;;;;;5033682;28;1568;-80
2021/12/17 03:29:25;;;;;;;;;;;;;;;;;;5021016;28;1686;-80
2021/12/17 03:31:50;;;;;;;;;;;;;;;;;;5015489;28;2003;-80
2021/12/17 03:34:18;;;;;;;;;;;;;;;;;;5020785;28;1139;-80
2021/12/17 03:36:47;;;;;;;;;;;;;;;;;;5045514;28;1780;-79
2021/12/17 03:39:13;;;;;;;;;;;;;;;;;;5034643;28;1249;-80
2021/12/17 03:41:39;;;;;;;;;;;;;;;;;;5026911;28;1674;-80
2021/12/17 03:44:06;;;;;;;;;;;;;;;;;;5015166;28;1663;-80
2021/12/17 03:46:31;;;;;;;;;;;;;;;;;;5015414;28;796;-80
2021/12/17 03:48:59;;;;;;;;;;;;;;;;;;5032383;28;1624;-80
2021/12/17 03:51:24;;;;;;;;;;;;;;;;;;5027240;28;1984;-80
2021/12/17 03:53:54;;;;;;;;;;;;;;;;;;5021492;28;1536;-80
2021/12/17 03:56:22;;;;;;;;;;;;;;;;;;5034170;28;1753;-80
2021/12/17 03:58:49;;;;;;;;;;;;;;;;;;5031897;28;1603;-80
2021/12/17 04:01:14;;;;;;;;;;;;;;;;;;5027466;28;1427;-80
2021/12/17 04:03:39;;;;;;;;;;;;;;;;;;5015348;28;1527;-80
2021/12/17 04:06:07;;;;;;;;;;;;;;;;;;5014942;28;836;-80
2021/12/17 04:08:32;;;;;;;;;;;;;;;;;;5026643;28;1643;-80
2021/12/17 04:11:05;;;;;;;;;;;;;;;;;;5017444;28;1690;-80
2021/12/17 04:13:37;;;;;;;;;;;;;;;;;;5014681;28;1955;-80
2021/12/17 04:16:06;;;;;;;;;;;;;;;;;;5029454;28;832;-80
2021/12/17 04:18:34;;;;;;;;;;;;;;;;;;5031588;28;1634;-80
2021/12/17 04:21:00;;;;;;;;;;;;;;;;;;5018127;28;1570;-80
2021/12/17 04:23:26;;;;;;;;;;;;;;;;;;5014684;28;1735;-80
2021/12/17 04:25:51;;;;;;;;;;;;;;;;;;5032755;28;1798;-79
2021/12/17 04:28:17;;;;;;;;;;;;;;;;;;5023535;28;1576;-80
2021/12/17 04:30:44;;;;;;;;;;;;;;;;;;5018022;28;1591;-79
2021/12/17 04:33:10;;;;;;;;;;;;;;;;;;5047713;28;1901;-79
2021/12/17 04:35:37;;;;;;;;;;;;;;;;;;5024747;28;1552;-79
2021/12/17 04:38:05;;;;;;;;;;;;;;;;;;5014322;28;1635;-79
2021/12/17 04:40:30;;;;;;;;;;;;;;;;;;5013731;28;1580;-79
2021/12/17 04:45:55;;;;;;;;;;;;;;;;;;5020245;28;1646;-80
2021/12/17 04:59:16;;;;;;;;;;;;;;;;;;5026368;28;1845;-79
2021/12/17 05:01:41;;;;;;;;;;;;;;;;;;5021088;28;1730;-79
2021/12/17 05:04:07;;;;;;;;;;;;;;;;;;5035663;28;1599;-80
2021/12/17 05:06:32;;;;;;;;;;;;;;;;;;5037138;28;1579;-80
2021/12/17 05:09:05;;;;;;;;;;;;;;;;;;5030293;28;1656;-80
2021/12/17 05:19:47;;;;;;;;;;;;;;;;;;5022038;28;1443;-80
2021/12/17 05:22:15;;;;;;;;;;;;;;;;;;5044614;28;1641;-80
2021/12/17 05:24:40;;;;;;;;;;;;;;;;;;5016679;28;1639;-80
2021/12/17 05:27:05;;;;;;;;;;;;;;;;;;5029071;28;1857;-80
2021/12/17 05:29:30;;;;;;;;;;;;;;;;;;5025385;28;1662;-79
2021/12/17 05:31:56;;;;;;;;;;;;;;;;;;5032719;28;1910;-79
2021/12/17 05:34:23;;;;;;;;;;;;;;;;;;5029912;28;1697;-79
2021/12/17 05:36:50;;;;;;;;;;;;;;;;;;5053038;28;885;-79
2021/12/17 05:39:18;;;;;;;;;;;;;;;;;;5023688;28;1813;-79
2021/12/17 05:41:45;;;;;;;;;;;;;;;;;;5031541;28;1777;-79
2021/12/17 05:44:10;;;;;;;;;;;;;;;;;;5029013;28;1652;-79
2021/12/17 05:46:49;;;;;;;;;;;;;;;;;;5013137;28;875;-80
2021/12/17 05:49:18;;;;;;;;;;;;;;;;;;5013459;28;1630;-80
2021/12/17 05:51:45;;;;;;;;;;;;;;;;;;5020155;28;1906;-80
2021/12/17 05:54:11;;;;;;;;;;;;;;;;;;5026446;28;1789;-80
2021/12/17 05:56:39;;;;;;;;;;;;;;;;;;5029711;28;1517;-80
2021/12/17 05:59:05;;;;;;;;;;;;;;;;;;5031560;28;1626;-80
2021/12/17 06:01:32;;;;;;;;;;;;;;;;;;5019909;28;1438;-80
2021/12/17 06:03:58;;;;;;;;;;;;;;;;;;5031734;28;2071;-80
2021/12/17 06:06:30;;;;;;;;;;;;;;;;;;5024855;28;2252;-79
2021/12/17 06:09:00;;;;;;;;;;;;;;;;;;5031064;28;1364;-80
2021/12/17 06:11:25;;;;;;;;;;;;;;;;;;5032116;28;1965;-80
2021/12/17 06:13:50;;;;;;;;;;;;;;;;;;5023822;28;1626;-81
2021/12/17 06:16:16;;;;;;;;;;;;;;;;;;5031326;28;1604;-80
2021/12/17 06:18:41;;;;;;;;;;;;;;;;;;5023666;28;1662;-80
2021/12/17 06:21:06;;;;;;;;;;;;;;;;;;5014028;28;1812;-80
2021/12/17 06:23:31;;;;;;;;;;;;;;;;;;5023798;28;1645;-80
2021/12/17 06:25:56;;;;;;;;;;;;;;;;;;5022918;28;1614;-80
2021/12/17 06:28:24;;;;;;;;;;;;;;;;;;5028877;28;1579;-80
2021/12/17 06:30:51;;;;;;;;;;;;;;;;;;5014236;28;1598;-80
2021/12/17 06:33:16;;;;;;;;;;;;;;;;;;5031289;28;1910;-80
2021/12/17 06:35:41;;;;;;;;;;;;;;;;;;5033487;28;1635;-80
2021/12/17 06:38:07;;;;;;;;;;;;;;;;;;5014930;28;1618;-80
2021/12/17 06:40:32;;;;;;;;;;;;;;;;;;5025951;28;1643;-80
2021/12/17 06:42:57;;;;;;;;;;;;;;;;;;5053506;28;1619;-79
2021/12/17 06:45:38;;;;;;;;;;;;;;;;;;5029137;28;1628;-79
2021/12/17 06:48:04;;;;;;;;;;;;;;;;;;5022521;28;1595;-79
2021/12/17 06:56:54;;;;;;;;;;;;;;;;;;5019782;28;1762;-80
2021/12/17 06:59:08;;;;;;;;;;;;;;;;;;5025224;28;1764;-80
2021/12/17 07:17:47;;;;;;;;;;;;;;;;;;5016379;28;630;-79
2021/12/17 07:33:16;;;;;;;;;;;;;;;;;;5015615;28;1961;-80
2021/12/17 07:40:51;;;;;;;;;;;;;;;;;;5031201;28;1421;-79
2021/12/17 07:43:25;;;;;;;;;;;;;;;;;;5024840;28;1766;-79
2021/12/17 07:45:51;;;;;;;;;;;;;;;;;;5032867;28;1630;-79
2021/12/17 07:48:16;;;;;;;;;;;;;;;;;;5031607;28;1801;-80
2021/12/17 07:50:41;;;;;;;;;;;;;;;;;;5030661;28;1643;-79
2021/12/17 07:53:07;;;;;;;;;;;;;;;;;;5033253;28;1910;-79
2021/12/17 07:55:34;;;;;;;;;;;;;;;;;;5024407;28;1686;-79
2021/12/17 07:57:59;;;;;;;;;;;;;;;;;;5035472;28;1294;-79
2021/12/17 08:00:25;;;;;;;;;;;;;;;;;;5030815;28;1658;-79
2021/12/17 08:02:50;;;;;;;;;;;;;;;;;;5028630;28;1637;-79
2021/12/17 08:05:17;;;;;;;;;;;;;;;;;;5032813;28;1551;-79
2021/12/17 08:07:43;;;;;;;;;;;;;;;;;;5024108;28;1662;-79
2021/12/17 08:10:10;;;;;;;;;;;;;;;;;;5028672;28;1674;-79
2021/12/17 08:12:36;;;;;;;;;;;;;;;;;;5031234;28;1965;-80
2021/12/17 08:15:04;;;;;;;;;;;;;;;;;;5027653;28;1925;-78
2021/12/17 08:26:28;;;;;;;;;;;;;;;;;;5014267;28;1656;-79
2021/12/17 08:28:51;;;;;;;;;;;;;;;;;;5012950;28;1742;-79
2021/12/17 08:31:15;;;;;;;;;;;;;;;;;;5026759;28;1810;-79
2021/12/17 08:33:43;;;;;;;;;;;;;;;;;;5026523;28;2606;-79
2021/12/17 08:36:09;;;;;;;;;;;;;;;;;;5047166;28;1389;-79
2021/12/17 08:38:34;;;;;;;;;;;;;;;;;;5025056;28;1605;-78
2021/12/17 08:41:00;;;;;;;;;;;;;;;;;;5028600;28;1504;-78
2021/12/17 08:43:25;;;;;;;;;;;;;;;;;;5021800;28;1674;-78
2021/12/17 08:45:53;;;;;;;;;;;;;;;;;;5015766;28;1785;-78
2021/12/17 08:48:18;;;;;;;;;;;;;;;;;;5041068;28;1618;-78
2021/12/17 08:50:43;;;;;;;;;;;;;;;;;;5018426;28;1620;-78
2021/12/17 08:53:09;;;;;;;;;;;;;;;;;;5064322;28;1914;-78
2021/12/17 08:55:34;;;;;;;;;;;;;;;;;;5049858;28;1851;-78
2021/12/17 08:57:59;;;;;;;;;;;;;;;;;;5027093;28;2126;-78
2021/12/17 09:00:24;;;;;;;;;;;;;;;;;;5019545;28;1607;-78
2021/12/17 09:02:50;;;;;;;;;;;;;;;;;;5014461;28;1640;-78
2021/12/17 09:05:17;;;;;;;;;;;;;;;;;;5015272;28;1623;-78
2021/12/17 09:07:43;;;;;;;;;;;;;;;;;;5014571;28;1650;-78
2021/12/17 09:10:08;;;;;;;;;;;;;;;;;;5029915;28;1699;-78
2021/12/17 09:12:36;;;;;;;;;;;;;;;;;;5064087;28;1953;-78
2021/12/17 09:15:03;;;;;;;;;;;;;;;;;;5030398;28;1663;-78
2021/12/17 09:17:28;;;;;;;;;;;;;;;;;;5020786;28;1658;-78
2021/12/17 09:19:54;;;;;;;;;;;;;;;;;;5031784;28;1805;-78
2021/12/17 09:22:19;;;;;;;;;;;;;;;;;;5030401;28;1595;-78
2021/12/17 09:24:44;;;;;;;;;;;;;;;;;;5029875;28;1906;-77
2021/12/17 09:27:11;;;;;;;;;;;;;;;;;;5018851;28;1689;-78
2021/12/17 09:29:36;;;;;;;;;;;;;;;;;;5061225;28;2217;-78
2021/12/17 09:32:02;;;;;;;;;;;;;;;;;;5031036;28;1906;-78
2021/12/17 09:34:31;;;;;;;;;;;;;;;;;;5051999;28;1634;-79
2021/12/17 09:36:58;;;;;;;;;;;;;;;;;;5033532;28;3519;-79
2021/12/17 09:39:24;;;;;;;;;;;;;;;;;;5024115;28;1791;-79
2021/12/17 09:41:50;;;;;;;;;;;;;;;;;;5027498;28;1391;-79
2021/12/17 09:44:18;;;;;;;;;;;;;;;;;;5054674;28;1644;-78
2021/12/17 09:46:44;;;;;;;;;;;;;;;;;;5009110;28;1650;-78
2021/12/17 09:49:10;;;;;;;;;;;;;;;;;;5028800;28;1611;-78
2021/12/17 09:51:35;;;;;;;;;;;;;;;;;;5025843;28;1914;-76
2021/12/17 09:54:00;;;;;;;;;;;;;;;;;;5028093;28;1706;-75
2021/12/17 09:56:27;;;;;;;;;;;;;;;;;;5062110;28;1596;-77
2021/12/17 09:58:52;;;;;;;;;;;;;;;;;;5029446;28;1635;-77
2021/12/17 10:01:18;;;;;;;;;;;;;;;;;;5029330;28;1552;-77
2021/12/17 10:03:43;;;;;;;;;;;;;;;;;;5029104;28;1659;-77
2021/12/17 10:06:21;;;;;;;;;;;;;;;;;;5021653;28;1887;-77
2021/12/17 10:08:47;;;;;;;;;;;;;;;;;;5033590;28;1806;-77
2021/12/17 10:11:14;;;;;;;;;;;;;;;;;;5052408;28;1640;-77
2021/12/17 10:13:39;;;;;;;;;;;;;;;;;;5027535;28;1898;-77
2021/12/17 10:16:08;;;;;;;;;;;;;;;;;;5028133;28;1697;-78
2021/12/17 10:18:40;;;;;;;;;;;;;;;;;;5030570;28;1338;-77
2021/12/17 10:21:06;;;;;;;;;;;;;;;;;;5028098;28;1677;-77
2021/12/17 10:23:32;;;;;;;;;;;;;;;;;;5032048;28;1271;-77
2021/12/17 10:25:57;;;;;;;;;;;;;;;;;;5031430;28;1716;-80
2021/12/17 10:28:25;;;;;;;;;;;;;;;;;;5031400;28;1321;-80
2021/12/17 10:30:50;;;;;;;;;;;;;;;;;;5032490;28;1580;-79
2021/12/17 10:33:18;;;;;;;;;;;;;;;;;;5035200;28;1910;-80
2021/12/17 10:35:46;;;;;;;;;;;;;;;;;;5023798;28;1581;-78
2021/12/17 10:38:14;;;;;;;;;;;;;;;;;;5050625;28;1779;-79
2021/12/17 10:40:43;;;;;;;;;;;;;;;;;;5021401;28;1286;-80
2021/12/17 10:43:24;;;;;;;;;;;;;;;;;;5031212;28;1622;-79
2021/12/17 10:48:32;;;;;;;;;;;;;;;;;;5046518;28;1512;-79
2021/12/17 10:51:01;;;;;;;;;;;;;;;;;;5018730;28;1658;-78
2021/12/17 10:53:26;;;;;;;;;;;;;;;;;;5027556;28;1984;-79
2021/12/17 10:55:52;;;;;;;;;;;;;;;;;;5021233;28;1879;-79
2021/12/17 10:58:18;;;;;;;;;;;;;;;;;;5065731;28;2121;-80
2021/12/17 11:00:53;;;;;;;;;;;;;;;;;;5034765;28;1699;-81
2021/12/17 11:03:19;;;;;;;;;;;;;;;;;;5026604;28;1638;-80
2021/12/17 11:05:44;;;;;;;;;;;;;;;;;;5066734;28;1537;-80
2021/12/17 11:08:19;;;;;;;;;;;;;;;;;;5028644;28;1635;-81
2021/12/17 11:10:48;;;;;;;;;;;;;;;;;;5032886;28;1838;-81
2021/12/17 11:13:16;;;;;;;;;;;;;;;;;;5035539;28;1910;-81
2021/12/17 11:15:41;;;;;;;;;;;;;;;;;;5035288;28;1678;-80
2021/12/17 11:18:09;;;;;;;;;;;;;;;;;;5026686;28;1750;-81
2021/12/17 11:20:35;;;;;;;;;;;;;;;;;;5066137;28;1632;-81
2021/12/17 11:23:04;;;;;;;;;;;;;;;;;;5031851;28;1646;-81
2021/12/17 11:25:29;;;;;;;;;;;;;;;;;;5030306;28;1936;-80
2021/12/17 11:27:55;;;;;;;;;;;;;;;;;;5020133;28;1654;-79
2021/12/17 11:30:21;;;;;;;;;;;;;;;;;;5023975;28;1698;-80
2021/12/17 11:32:47;;;;;;;;;;;;;;;;;;5028349;28;1940;-81
2021/12/17 11:35:15;;;;;;;;;;;;;;;;;;5028236;28;1749;-81
2021/12/17 11:37:42;;;;;;;;;;;;;;;;;;5020586;28;1340;-81
2021/12/17 11:40:10;;;;;;;;;;;;;;;;;;5018433;28;1756;-81
2021/12/17 11:42:49;;;;;;;;;;;;;;;;;;5028391;28;1575;-81
2021/12/17 11:45:25;;;;;;;;;;;;;;;;;;5047583;28;835;-81
2021/12/17 11:47:51;;;;;;;;;;;;;;;;;;5023976;28;1660;-81
2021/12/17 11:50:17;;;;;;;;;;;;;;;;;;5016422;28;1497;-80
2021/12/17 11:52:43;;;;;;;;;;;;;;;;;;5020222;28;1902;-80
2021/12/17 11:55:23;;;;;;;;;;;;;;;;;;5018138;28;1473;-80
2021/12/17 11:57:50;;;;;;;;;;;;;;;;;;5032619;28;1708;-79
2021/12/17 12:00:18;;;;;;;;;;;;;;;;;;5034940;28;1080;-80
2021/12/17 12:02:47;;;;;;;;;;;;;;;;;;5027219;28;1669;-80
2021/12/17 12:05:12;;;;;;;;;;;;;;;;;;5046154;28;1520;-80
2021/12/17 12:07:40;;;;;;;;;;;;;;;;;;5033253;28;1702;-80
2021/12/17 12:10:08;;;;;;;;;;;;;;;;;;5036839;28;1713;-80
2021/12/17 12:12:33;;;;;;;;;;;;;;;;;;5033908;28;2024;-80
2021/12/17 12:15:19;;;;;;;;;;;;;;;;;;5036183;28;1756;-80
2021/12/17 12:18:03;;;;;;;;;;;;;;;;;;5030669;28;1518;-80
2021/12/17 12:20:43;;;;;;;;;;;;;;;;;;5033175;28;1540;-81
2021/12/17 12:23:32;;;;;;;;;;;;;;;;;;5030536;28;1434;-75
2021/12/17 12:28:42;;;;;;;;;;;;;;;;;;5016985;28;1824;-79
2021/12/17 12:31:07;;;;;;;;;;;;;;;;;;5027761;28;1614;-79
2021/12/17 12:33:32;;;;;;;;;;;;;;;;;;5023408;28;1902;-79
2021/12/17 12:35:57;;;;;;;;;;;;;;;;;;5032660;28;1772;-81
2021/12/17 12:38:26;;;;;;;;;;;;;;;;;;5032300;28;1697;-79
2021/12/17 12:40:54;;;;;;;;;;;;;;;;;;5032132;28;1753;-79
2021/12/17 12:43:29;;;;;;;;;;;;;;;;;;5034406;28;1643;-79
2021/12/17 12:45:55;;;;;;;;;;;;;;;;;;5011853;28;1444;-78
2021/12/17 12:48:27;;;;;;;;;;;;;;;;;;5029412;28;1690;-78
2021/12/17 12:51:03;;;;;;;;;;;;;;;;;;5032907;28;1615;-79
2021/12/17 12:53:29;;;;;;;;;;;;;;;;;;5028258;28;1906;-79
2021/12/17 12:56:05;;;;;;;;;;;;;;;;;;5026547;28;1698;-79
2021/12/17 12:58:30;;;;;;;;;;;;;;;;;;5027391;28;1541;-79
2021/12/17 13:00:58;;;;;;;;;;;;;;;;;;5024965;28;1726;-80
2021/12/17 13:03:29;;;;;;;;;;;;;;;;;;5032184;28;1672;-80
2021/12/17 13:05:55;;;;;;;;;;;;;;;;;;5033836;28;1604;-80
2021/12/17 13:08:20;;;;;;;;;;;;;;;;;;5032051;28;1571;-81
2021/12/17 13:10:49;;;;;;;;;;;;;;;;;;5031890;28;1682;-82
2021/12/17 13:15:46;;;;;;;;;;;;;;;;;;5029646;28;1474;-81
2021/12/17 13:23:19;;;;;;;;;;;;;;;;;;5033237;28;1698;-81
2021/12/17 13:25:44;;;;;;;;;;;;;;;;;;5029306;28;1636;-83
2021/12/17 13:28:09;;;;;;;;;;;;;;;;;;5058318;28;1666;-83
2021/12/17 13:30:34;;;;;;;;;;;;;;;;;;5030489;28;2008;-82
2021/12/17 13:33:02;;;;;;;;;;;;;;;;;;5031148;28;1906;-79
2021/12/17 13:35:33;;;;;;;;;;;;;;;;;;5032311;28;1735;-80
2021/12/17 13:38:01;;;;;;;;;;;;;;;;;;5036422;28;1709;-78
2021/12/17 13:40:27;;;;;;;;;;;;;;;;;;5017081;28;1605;-80
2021/12/17 13:42:54;;;;;;;;;;;;;;;;;;5036997;28;2029;-79
2021/12/17 13:45:21;;;;;;;;;;;;;;;;;;5071071;28;1613;-80
2021/12/17 13:47:54;;;;;;;;;;;;;;;;;;5055157;28;1756;-80
2021/12/17 13:50:22;;;;;;;;;;;;;;;;;;5036261;28;1615;-80
2021/12/17 13:52:47;;;;;;;;;;;;;;;;;;5041678;28;1906;-79
2021/12/17 13:55:14;;;;;;;;;;;;;;;;;;5055905;28;1807;-79
2021/12/17 13:57:39;;;;;;;;;;;;;;;;;;5033470;28;1548;-79
2021/12/17 14:00:24;;;;;;;;;;;;;;;;;;5045421;28;1928;-79
2021/12/17 14:02:50;;;;;;;;;;;;;;;;;;5028839;28;1724;-80
2021/12/17 14:05:19;;;;;;;;;;;;;;;;;;5045027;28;1924;-79
2021/12/17 14:07:47;;;;;;;;;;;;;;;;;;5033728;28;1587;-80
2021/12/17 14:10:20;;;;;;;;;;;;;;;;;;5037126;28;1630;-80
2021/12/17 14:12:46;;;;;;;;;;;;;;;;;;5036715;28;1967;-82
2021/12/17 14:15:31;;;;;;;;;;;;;;;;;;5032765;28;1920;-83
2021/12/17 14:17:58;;;;;;;;;;;;;;;;;;5037647;28;1509;-82
2021/12/17 14:20:24;;;;;;;;;;;;;;;;;;5039562;28;1852;-82
2021/12/17 14:22:50;;;;;;;;;;;;;;;;;;5062031;28;1903;-82
2021/12/17 14:25:42;;;;;;;;;;;;;;;;;;5060929;28;1694;-84
2021/12/17 14:28:07;;;;;;;;;;;;;;;;;;5036859;28;1116;-82
2021/12/17 14:30:35;;;;;;;;;;;;;;;;;;5035520;28;1749;-82
2021/12/17 14:33:16;;;;;;;;;;;;;;;;;;5027165;28;1910;-81
2021/12/17 14:35:47;;;;;;;;;;;;;;;;;;5068845;28;1750;-81
2021/12/17 14:38:13;;;;;;;;;;;;;;;;;;5023482;28;1689;-81
2021/12/17 14:40:59;;;;;;;;;;;;;;;;;;5024215;28;1891;-82
2021/12/17 14:43:30;;;;;;;;;;;;;;;;;;5033499;28;1745;-82
2021/12/17 14:48:50;;;;;;;;;;;;;;;;;;5018386;28;1575;-82
2021/12/17 15:04:42;;;;;;;;;;;;;;;;;;5031932;28;1721;-82
2021/12/17 15:07:08;;;;;;;;;;;;;;;;;;5034167;28;1773;-81
2021/12/17 15:09:35;;;;;;;;;;;;;;;;;;5066872;28;953;-82
2021/12/17 15:12:24;;;;;;;;;;;;;;;;;;5024443;28;1961;-81
2021/12/17 15:14:59;;;;;;;;;;;;;;;;;;5033220;28;1791;-82
2021/12/17 15:17:24;;;;;;;;;;;;;;;;;;5033570;28;1779;-82
2021/12/17 15:19:49;;;;;;;;;;;;;;;;;;5029813;28;1653;-82
2021/12/17 15:22:17;;;;;;;;;;;;;;;;;;5032759;28;1604;-81
2021/12/17 15:24:45;;;;;;;;;;;;;;;;;;5029528;28;1632;-81
2021/12/17 15:27:13;;;;;;;;;;;;;;;;;;5030410;28;1626;-82
2021/12/17 15:29:38;;;;;;;;;;;;;;;;;;5026333;28;1733;-81
2021/12/17 15:32:03;;;;;;;;;;;;;;;;;;5029044;28;2024;-82
2021/12/17 15:34:28;;;;;;;;;;;;;;;;;;5032266;28;1805;-82
2021/12/17 15:36:57;;;;;;;;;;;;;;;;;;5062012;28;1841;-81
2021/12/17 15:39:22;;;;;;;;;;;;;;;;;;5056163;28;1982;-81
2021/12/17 15:41:50;;;;;;;;;;;;;;;;;;5026361;28;1645;-81
2021/12/17 15:44:15;;;;;;;;;;;;;;;;;;5031583;28;1497;-84
2021/12/17 15:46:40;;;;;;;;;;;;;;;;;;5025443;28;1659;-81
2021/12/17 15:49:05;;;;;;;;;;;;;;;;;;5026052;28;1650;-81
2021/12/17 15:51:31;;;;;;;;;;;;;;;;;;5058259;28;1832;-81
2021/12/17 15:53:59;;;;;;;;;;;;;;;;;;5032328;28;1906;-81
2021/12/17 15:56:24;;;;;;;;;;;;;;;;;;5025946;28;1701;-82
2021/12/17 15:58:50;;;;;;;;;;;;;;;;;;5035274;28;1983;-82
2021/12/17 16:01:15;;;;;;;;;;;;;;;;;;5023405;28;1831;-81
2021/12/17 16:03:42;;;;;;;;;;;;;;;;;;5062772;28;1611;-81
2021/12/17 16:06:08;;;;;;;;;;;;;;;;;;5059119;28;2049;-81
2021/12/17 16:08:36;;;;;;;;;;;;;;;;;;5024533;28;1600;-79
2021/12/17 16:21:46;;;;;;;;;;;;;;;;;;5031437;28;1812;-80
2021/12/17 16:24:11;;;;;;;;;;;;;;;;;;5030192;28;1678;-80
2021/12/17 16:26:36;;;;;;;;;;;;;;;;;;5064288;28;1851;-81
2021/12/17 16:29:01;;;;;;;;;;;;;;;;;;5041052;28;1728;-82
2021/12/17 16:31:27;;;;;;;;;;;;;;;;;;5032307;28;1641;-82
2021/12/17 16:34:04;;;;;;;;;;;;;;;;;;5028531;28;1975;-82
2021/12/17 16:36:30;;;;;;;;;;;;;;;;;;5026674;28;1704;-81
2021/12/17 16:38:55;;;;;;;;;;;;;;;;;;5016264;28;1726;-82
2021/12/17 16:41:23;;;;;;;;;;;;;;;;;;5027144;28;1740;-83
2021/12/17 16:43:51;;;;;;;;;;;;;;;;;;5031301;28;1646;-82
2021/12/17 16:48:43;;;;;;;;;;;;;;;;;;5028983;28;1745;-82
2021/12/17 16:51:08;;;;;;;;;;;;;;;;;;5025062;28;1633;-82
2021/12/17 16:53:33;;;;;;;;;;;;;;;;;;5018629;28;1968;-82
2021/12/17 16:55:59;;;;;;;;;;;;;;;;;;5019147;28;1674;-82
2021/12/17 16:58:26;;;;;;;;;;;;;;;;;;5035625;28;1644;-83
2021/12/17 17:00:52;;;;;;;;;;;;;;;;;;5012505;28;1697;-83
2021/12/17 17:03:17;;;;;;;;;;;;;;;;;;5030165;28;1698;-82
2021/12/17 17:05:42;;;;;;;;;;;;;;;;;;5031798;28;1577;-80
2021/12/17 17:08:08;;;;;;;;;;;;;;;;;;5043233;28;1917;-79
2021/12/17 17:10:34;;;;;;;;;;;;;;;;;;5032087;28;1473;-80
2021/12/17 17:13:02;;;;;;;;;;;;;;;;;;5030497;28;1898;-79
2021/12/17 17:15:30;;;;;;;;;;;;;;;;;;5047716;28;1754;-79
2021/12/17 17:17:56;;;;;;;;;;;;;;;;;;5030390;28;1698;-80
2021/12/17 17:20:24;;;;;;;;;;;;;;;;;;5020266;28;1716;-78
2021/12/17 17:22:49;;;;;;;;;;;;;;;;;;5008610;28;1705;-79
2021/12/17 17:25:14;;;;;;;;;;;;;;;;;;5015447;28;1617;-78
2021/12/17 17:27:40;;;;;;;;;;;;;;;;;;5045935;28;1685;-80
2021/12/17 17:30:05;;;;;;;;;;;;;;;;;;5031902;28;1396;-79
2021/12/17 17:32:33;;;;;;;;;;;;;;;;;;5032073;28;1975;-78
2021/12/17 17:34:59;;;;;;;;;;;;;;;;;;5032305;28;1935;-79
2021/12/17 17:37:28;;;;;;;;;;;;;;;;;;5017258;28;1723;-79
2021/12/17 17:39:53;;;;;;;;;;;;;;;;;;5027467;28;1758;-80
2021/12/17 17:42:18;;;;;;;;;;;;;;;;;;5029888;28;1832;-80
2021/12/17 17:44:44;;;;;;;;;;;;;;;;;;5021970;28;1814;-80
2021/12/17 17:47:09;;;;;;;;;;;;;;;;;;5028127;28;1778;-80
2021/12/17 17:49:34;;;;;;;;;;;;;;;;;;5018371;28;1881;-79
2021/12/17 17:51:59;;;;;;;;;;;;;;;;;;5012965;28;2279;-79
2021/12/17 17:54:24;;;;;;;;;;;;;;;;;;5012417;28;814;-79
2021/12/17 17:56:50;;;;;;;;;;;;;;;;;;5040836;28;1923;-80
2021/12/17 17:59:15;;;;;;;;;;;;;;;;;;5013074;28;1444;-80
2021/12/17 18:01:40;;;;;;;;;;;;;;;;;;5047208;28;1681;-80
2021/12/17 18:04:05;;;;;;;;;;;;;;;;;;5024319;28;1968;-80
2021/12/17 18:06:30;;;;;;;;;;;;;;;;;;5024997;28;1631;-80
2021/12/17 18:08:56;;;;;;;;;;;;;;;;;;5012817;28;1726;-79
2021/12/17 18:11:21;;;;;;;;;;;;;;;;;;5018290;28;2038;-79
2021/12/17 18:13:46;;;;;;;;;;;;;;;;;;5029937;28;1898;-79
2021/12/17 18:16:11;;;;;;;;;;;;;;;;;;5011389;28;1708;-79
2021/12/17 18:18:36;;;;;;;;;;;;;;;;;;5013487;28;1648;-81
2021/12/17 18:21:04;;;;;;;;;;;;;;;;;;5018921;28;1805;-81
2021/12/17 18:23:29;;;;;;;;;;;;;;;;;;5031825;28;1812;-81
2021/12/17 18:25:55;;;;;;;;;;;;;;;;;;5024971;28;1478;-81
2021/12/17 18:28:21;;;;;;;;;;;;;;;;;;5059308;28;1777;-81
2021/12/17 18:30:50;;;;;;;;;;;;;;;;;;5029037;28;1787;-81
2021/12/17 18:33:15;;;;;;;;;;;;;;;;;;5020182;28;1910;-80
2021/12/17 18:35:40;;;;;;;;;;;;;;;;;;5029163;28;1934;-80
2021/12/17 18:38:08;;;;;;;;;;;;;;;;;;5024383;28;2221;-80
2021/12/17 18:40:40;;;;;;;;;;;;;;;;;;5058010;28;1511;-80
2021/12/17 18:45:50;;;;;;;;;;;;;;;;;;5030440;28;1707;-79
2021/12/17 18:48:16;;;;;;;;;;;;;;;;;;5023080;28;1650;-80
2021/12/17 18:50:42;;;;;;;;;;;;;;;;;;5033964;28;1655;-79
2021/12/17 18:53:08;;;;;;;;;;;;;;;;;;5061319;28;1971;-81
2021/12/17 18:55:34;;;;;;;;;;;;;;;;;;5034759;28;1827;-81
2021/12/17 18:57:59;;;;;;;;;;;;;;;;;;5022570;28;1780;-81
2021/12/17 19:00:25;;;;;;;;;;;;;;;;;;5027318;28;1638;-80
2021/12/17 19:02:50;;;;;;;;;;;;;;;;;;5034045;28;1813;-80
2021/12/17 19:05:16;;;;;;;;;;;;;;;;;;5034322;28;1773;-79
2021/12/17 19:07:43;;;;;;;;;;;;;;;;;;5020348;28;2036;-80
2021/12/17 19:10:08;;;;;;;;;;;;;;;;;;5019929;28;1792;-80
2021/12/17 19:12:34;;;;;;;;;;;;;;;;;;5048632;28;1971;-82
2021/12/17 19:14:59;;;;;;;;;;;;;;;;;;5049983;28;2083;-80
2021/12/17 19:17:28;;;;;;;;;;;;;;;;;;5045419;28;1774;-80
2021/12/17 19:20:05;;;;;;;;;;;;;;;;;;5034644;28;1821;-78
2021/12/17 19:22:35;;;;;;;;;;;;;;;;;;5062962;28;1828;-80
2021/12/17 19:25:04;;;;;;;;;;;;;;;;;;5023093;28;1720;-79
2021/12/17 19:27:29;;;;;;;;;;;;;;;;;;5037890;28;1759;-80
2021/12/17 19:29:55;;;;;;;;;;;;;;;;;;5031892;28;1666;-78
2021/12/17 19:32:22;;;;;;;;;;;;;;;;;;5044049;28;2033;-78
2021/12/17 19:34:48;;;;;;;;;;;;;;;;;;5065392;28;2094;-79
2021/12/17 19:37:13;;;;;;;;;;;;;;;;;;5045378;28;1821;-78
2021/12/17 19:39:40;;;;;;;;;;;;;;;;;;5073969;28;1106;-78
2021/12/17 19:42:05;;;;;;;;;;;;;;;;;;5023948;28;1661;-78
2021/12/17 19:44:32;;;;;;;;;;;;;;;;;;5020655;28;2134;-78
2021/12/17 19:51:51;;;;;;;;;;;;;;;;;;5027500;28;1243;-78
2021/12/17 19:54:17;;;;;;;;;;;;;;;;;;5059447;28;1961;-80
2021/12/17 19:56:44;;;;;;;;;;;;;;;;;;5049998;28;1767;-80
2021/12/17 19:59:10;;;;;;;;;;;;;;;;;;5024279;28;1626;-80
2021/12/17 20:01:35;;;;;;;;;;;;;;;;;;5013595;28;1656;-79
2021/12/17 20:04:04;;;;;;;;;;;;;;;;;;5013718;28;1448;-78
2021/12/17 20:06:30;;;;;;;;;;;;;;;;;;5019045;28;1956;-79
2021/12/17 20:08:59;;;;;;;;;;;;;;;;;;5029985;28;1570;-78
2021/12/17 20:11:24;;;;;;;;;;;;;;;;;;5033998;28;1337;-79
2021/12/17 20:13:50;;;;;;;;;;;;;;;;;;5026165;28;1907;-80
2021/12/17 20:16:15;;;;;;;;;;;;;;;;;;5052664;28;1743;-80
2021/12/17 20:18:41;;;;;;;;;;;;;;;;;;5048977;28;1777;-80
2021/12/17 20:21:07;;;;;;;;;;;;;;;;;;5031694;28;855;-80
2021/12/17 20:23:34;;;;;;;;;;;;;;;;;;5045641;28;1666;-80
2021/12/17 20:26:00;;;;;;;;;;;;;;;;;;5051252;28;1628;-80
2021/12/17 20:28:30;;;;;;;;;;;;;;;;;;5059431;28;1576;-79
2021/12/17 20:30:55;;;;;;;;;;;;;;;;;;5023035;28;1741;-80
2021/12/17 20:33:20;;;;;;;;;;;;;;;;;;5026184;28;1910;-80
2021/12/17 20:35:46;;;;;;;;;;;;;;;;;;5049788;28;1225;-79
2021/12/17 20:38:11;;;;;;;;;;;;;;;;;;5060615;28;1624;-78
2021/12/17 20:40:36;;;;;;;;;;;;;;;;;;5058548;28;1683;-79
2021/12/17 20:43:07;;;;;;;;;;;;;;;;;;5057924;28;1704;-78
2021/12/17 20:45:33;;;;;;;;;;;;;;;;;;5016161;28;1679;-79
2021/12/17 20:47:58;;;;;;;;;;;;;;;;;;5031784;28;1426;-79